Arlington, Arizona
Current Conditions -  °F | °C
As of 9:35 AM on Monday 26 Jan 2015 (Local Time) from KBXK Reporting Station
Overcast Overcast  
Wind Chill: 54°   Ceiling: 9500
Heat Index: 54°   Visibility: 3mi
Dew Point: 34°   Wind: 3mph
Humidity: 47%   Direction: 340°NNW
Pressure: 30.15"   Gusts: NA
Location:  33.33°N, 112.77°W
Report Text: KBXK 261635Z AUTO 34003KT 3SM OVC095 12/01 A3015 RMK AO1
Loading
Personal Weather Stations






























Interactive Weather Map New forecast layout! Learn more

10-Day Weather Forecast

Advertisements
Track Severe Weather on mobile